sensor_id;sensor_type;location;lat;lon;timestamp;temperature;humidity
40077;DHT22;25777;47.824;18.982;2023-04-15T00:01:48;5.80;99.90
40077;DHT22;25777;47.824;18.982;2023-04-15T00:04:13;5.80;99.90
40077;DHT22;25777;47.824;18.982;2023-04-15T00:11:44;5.70;99.90
40077;DHT22;25777;47.824;18.982;2023-04-15T00:14:16;5.80;99.90
40077;DHT22;25777;47.824;18.982;2023-04-15T00:16:43;5.80;99.90
40077;DHT22;25777;47.824;18.982;2023-04-15T00:24:33;5.70;99.90
40077;DHT22;25777;47.824;18.982;2023-04-15T00:29:29;5.70;99.90
40077;DHT22;25777;47.824;18.982;2023-04-15T00:31:55;5.60;99.90
40077;DHT22;25777;47.824;18.982;2023-04-15T00:34:32;5.60;99.90
40077;DHT22;25777;47.824;18.982;2023-04-15T00:37:00;5.60;99.90
40077;DHT22;25777;47.824;18.982;2023-04-15T00:39:26;5.70;99.90
40077;DHT22;25777;47.824;18.982;2023-04-15T00:44:47;5.70;99.90
40077;DHT22;25777;47.824;18.982;2023-04-15T00:47:14;5.80;99.90
40077;DHT22;25777;47.824;18.982;2023-04-15T00:49:40;5.70;99.90
40077;DHT22;25777;47.824;18.982;2023-04-15T00:52:06;5.70;99.90
40077;DHT22;25777;47.824;18.982;2023-04-15T00:54:33;5.70;99.90
40077;DHT22;25777;47.824;18.982;2023-04-15T00:57:11;5.80;99.90
40077;DHT22;25777;47.824;18.982;2023-04-15T00:59:38;5.80;99.90
40077;DHT22;25777;47.824;18.982;2023-04-15T01:02:11;5.80;99.90
40077;DHT22;25777;47.824;18.982;2023-04-15T01:09:50;5.70;99.90
40077;DHT22;25777;47.824;18.982;2023-04-15T01:14:54;5.70;99.90
40077;DHT22;25777;47.824;18.982;2023-04-15T01:17:27;5.70;99.90
40077;DHT22;25777;47.824;18.982;2023-04-15T01:19:54;5.70;99.90
40077;DHT22;25777;47.824;18.982;2023-04-15T01:22:20;5.80;99.90
40077;DHT22;25777;47.824;18.982;2023-04-15T01:27:18;5.80;99.90
40077;DHT22;25777;47.824;18.982;2023-04-15T01:29:46;5.70;99.90
40077;DHT22;25777;47.824;18.982;2023-04-15T01:32:12;5.70;99.90
40077;DHT22;25777;47.824;18.982;2023-04-15T01:37:18;5.70;99.90
40077;DHT22;25777;47.824;18.982;2023-04-15T01:39:45;5.70;99.90
40077;DHT22;25777;47.824;18.982;2023-04-15T01:42:11;5.70;99.90
40077;DHT22;25777;47.824;18.982;2023-04-15T01:44:39;5.70;99.90
40077;DHT22;25777;47.824;18.982;2023-04-15T01:47:06;5.70;99.90
40077;DHT22;25777;47.824;18.982;2023-04-15T01:49:32;5.80;99.90
40077;DHT22;25777;47.824;18.982;2023-04-15T01:51:57;5.90;99.90
40077;DHT22;25777;47.824;18.982;2023-04-15T01:54:34;5.70;99.90
40077;DHT22;25777;47.824;18.982;2023-04-15T01:57:04;5.60;99.90
40077;DHT22;25777;47.824;18.982;2023-04-15T02:02:05;5.60;99.90
40077;DHT22;25777;47.824;18.982;2023-04-15T02:04:38;5.60;99.90
40077;DHT22;25777;47.824;18.982;2023-04-15T02:07:17;5.70;99.90
40077;DHT22;25777;47.824;18.982;2023-04-15T02:09:46;5.70;99.90
40077;DHT22;25777;47.824;18.982;2023-04-15T02:12:12;5.70;99.90
40077;DHT22;25777;47.824;18.982;2023-04-15T02:20:27;5.70;99.90
40077;DHT22;25777;47.824;18.982;2023-04-15T02:27:59;5.90;99.90
40077;DHT22;25777;47.824;18.982;2023-04-15T02:36:06;6.00;99.90
40077;DHT22;25777;47.824;18.982;2023-04-15T02:38:32;5.90;99.90
40077;DHT22;25777;47.824;18.982;2023-04-15T02:40:59;5.80;99.90
40077;DHT22;25777;47.824;18.982;2023-04-15T02:43:42;5.80;99.90
40077;DHT22;25777;47.824;18.982;2023-04-15T02:54:26;5.90;99.90
40077;DHT22;25777;47.824;18.982;2023-04-15T02:59:28;5.80;99.90
40077;DHT22;25777;47.824;18.982;2023-04-15T03:04:57;5.70;99.90
40077;DHT22;25777;47.824;18.982;2023-04-15T03:10:33;5.80;99.90
40077;DHT22;25777;47.824;18.982;2023-04-15T03:15:35;5.90;99.90
40077;DHT22;25777;47.824;18.982;2023-04-15T03:21:12;5.80;99.90
40077;DHT22;25777;47.824;18.982;2023-04-15T03:29:44;5.80;99.90
40077;DHT22;25777;47.824;18.982;2023-04-15T03:32:14;5.90;99.90
40077;DHT22;25777;47.824;18.982;2023-04-15T03:34:48;5.90;99.90
40077;DHT22;25777;47.824;18.982;2023-04-15T03:37:16;5.90;99.90
40077;DHT22;25777;47.824;18.982;2023-04-15T03:39:44;5.90;99.90
40077;DHT22;25777;47.824;18.982;2023-04-15T03:42:11;5.90;99.90
40077;DHT22;25777;47.824;18.982;2023-04-15T03:44:36;5.90;99.90
40077;DHT22;25777;47.824;18.982;2023-04-15T03:49:48;5.90;99.90
40077;DHT22;25777;47.824;18.982;2023-04-15T03:52:14;5.90;99.90
40077;DHT22;25777;47.824;18.982;2023-04-15T03:57:12;5.90;99.90
40077;DHT22;25777;47.824;18.982;2023-04-15T03:59:40;6.00;99.90
40077;DHT22;25777;47.824;18.982;2023-04-15T04:02:06;6.00;99.90
40077;DHT22;25777;47.824;18.982;2023-04-15T04:04:33;6.10;99.90
40077;DHT22;25777;47.824;18.982;2023-04-15T04:09:48;6.10;99.90
40077;DHT22;25777;47.824;18.982;2023-04-15T04:12:22;6.10;99.90
40077;DHT22;25777;47.824;18.982;2023-04-15T04:17:21;6.10;99.90
40077;DHT22;25777;47.824;18.982;2023-04-15T04:22:41;6.10;99.90
40077;DHT22;25777;47.824;18.982;2023-04-15T04:25:17;6.10;99.90
40077;DHT22;25777;47.824;18.982;2023-04-15T04:27:45;6.10;99.90
40077;DHT22;25777;47.824;18.982;2023-04-15T04:33:02;6.10;99.90
40077;DHT22;25777;47.824;18.982;2023-04-15T04:38:02;6.10;99.90
40077;DHT22;25777;47.824;18.982;2023-04-15T04:40:28;6.20;99.90
40077;DHT22;25777;47.824;18.982;2023-04-15T04:42:54;6.20;99.90
40077;DHT22;25777;47.824;18.982;2023-04-15T04:45:21;6.30;99.90
40077;DHT22;25777;47.824;18.982;2023-04-15T04:47:47;6.40;99.90
40077;DHT22;25777;47.824;18.982;2023-04-15T04:50:12;6.30;99.90
40077;DHT22;25777;47.824;18.982;2023-04-15T04:52:38;6.20;99.90
40077;DHT22;25777;47.824;18.982;2023-04-15T04:55:11;6.20;99.90
40077;DHT22;25777;47.824;18.982;2023-04-15T05:00:17;6.30;99.90
40077;DHT22;25777;47.824;18.982;2023-04-15T05:02:43;6.30;99.90
40077;DHT22;25777;47.824;18.982;2023-04-15T05:10:17;6.40;99.90
40077;DHT22;25777;47.824;18.982;2023-04-15T05:12:50;6.40;99.90
40077;DHT22;25777;47.824;18.982;2023-04-15T05:15:29;6.40;99.90
40077;DHT22;25777;47.824;18.982;2023-04-15T05:20:23;6.50;99.90
40077;DHT22;25777;47.824;18.982;2023-04-15T05:22:54;6.50;99.90
40077;DHT22;25777;47.824;18.982;2023-04-15T05:25:20;6.50;99.90
40077;DHT22;25777;47.824;18.982;2023-04-15T05:27:49;6.50;99.90
40077;DHT22;25777;47.824;18.982;2023-04-15T05:30:16;6.60;99.90
40077;DHT22;25777;47.824;18.982;2023-04-15T05:32:42;6.60;99.90
40077;DHT22;25777;47.824;18.982;2023-04-15T05:35:07;6.50;99.90
40077;DHT22;25777;47.824;18.982;2023-04-15T05:37:33;6.60;99.90
40077;DHT22;25777;47.824;18.982;2023-04-15T05:40:03;6.70;99.90
40077;DHT22;25777;47.824;18.982;2023-04-15T05:42:30;6.70;99.90
40077;DHT22;25777;47.824;18.982;2023-04-15T05:44:56;6.70;99.90
40077;DHT22;25777;47.824;18.982;2023-04-15T05:52:20;6.70;99.90
40077;DHT22;25777;47.824;18.982;2023-04-15T05:54:46;6.70;99.90
40077;DHT22;25777;47.824;18.982;2023-04-15T05:57:23;6.80;99.90
40077;DHT22;25777;47.824;18.982;2023-04-15T05:59:49;6.80;99.90
40077;DHT22;25777;47.824;18.982;2023-04-15T06:02:22;7.00;99.90
40077;DHT22;25777;47.824;18.982;2023-04-15T06:04:56;6.90;99.90
40077;DHT22;25777;47.824;18.982;2023-04-15T06:12:30;7.10;99.90
40077;DHT22;25777;47.824;18.982;2023-04-15T06:15:11;7.10;99.90
40077;DHT22;25777;47.824;18.982;2023-04-15T06:20:05;7.30;99.90
40077;DHT22;25777;47.824;18.982;2023-04-15T06:25:14;7.40;99.90
40077;DHT22;25777;47.824;18.982;2023-04-15T06:27:42;7.40;99.90
40077;DHT22;25777;47.824;18.982;2023-04-15T06:30:13;7.40;99.90
40077;DHT22;25777;47.824;18.982;2023-04-15T06:35:10;7.70;99.90
40077;DHT22;25777;47.824;18.982;2023-04-15T06:40:39;7.80;99.90
40077;DHT22;25777;47.824;18.982;2023-04-15T06:45:34;7.80;99.90
40077;DHT22;25777;47.824;18.982;2023-04-15T06:48:01;7.90;99.90
40077;DHT22;25777;47.824;18.982;2023-04-15T06:50:37;8.10;99.90
40077;DHT22;25777;47.824;18.982;2023-04-15T06:53:03;8.20;99.90
40077;DHT22;25777;47.824;18.982;2023-04-15T06:55:40;8.30;99.90
40077;DHT22;25777;47.824;18.982;2023-04-15T07:09:01;8.20;99.90
40077;DHT22;25777;47.824;18.982;2023-04-15T07:14:08;8.10;99.90
40077;DHT22;25777;47.824;18.982;2023-04-15T07:19:10;8.20;99.90
40077;DHT22;25777;47.824;18.982;2023-04-15T07:21:45;8.40;99.90
40077;DHT22;25777;47.824;18.982;2023-04-15T07:24:13;8.60;99.90
40077;DHT22;25777;47.824;18.982;2023-04-15T07:40:38;8.80;99.90
40077;DHT22;25777;47.824;18.982;2023-04-15T07:43:12;8.80;99.90
40077;DHT22;25777;47.824;18.982;2023-04-15T07:45:39;8.90;99.90
40077;DHT22;25777;47.824;18.982;2023-04-15T07:48:06;9.10;99.90
40077;DHT22;25777;47.824;18.982;2023-04-15T07:50:34;9.10;99.90
40077;DHT22;25777;47.824;18.982;2023-04-15T07:53:00;9.00;99.90
40077;DHT22;25777;47.824;18.982;2023-04-15T07:55:27;9.00;99.90
40077;DHT22;25777;47.824;18.982;2023-04-15T07:57:55;8.90;99.90
40077;DHT22;25777;47.824;18.982;2023-04-15T08:00:23;8.90;99.90
40077;DHT22;25777;47.824;18.982;2023-04-15T08:08:18;9.00;99.90
40077;DHT22;25777;47.824;18.982;2023-04-15T08:10:44;9.00;99.90
40077;DHT22;25777;47.824;18.982;2023-04-15T08:15:52;8.90;99.90
40077;DHT22;25777;47.824;18.982;2023-04-15T08:18:41;9.00;99.90
40077;DHT22;25777;47.824;18.982;2023-04-15T08:21:07;9.20;99.90
40077;DHT22;25777;47.824;18.982;2023-04-15T08:23:34;9.40;99.90
40077;DHT22;25777;47.824;18.982;2023-04-15T08:28:39;10.10;99.90
40077;DHT22;25777;47.824;18.982;2023-04-15T08:31:17;10.40;99.90
40077;DHT22;25777;47.824;18.982;2023-04-15T08:33:44;10.10;99.90
40077;DHT22;25777;47.824;18.982;2023-04-15T08:36:11;10.00;99.90
40077;DHT22;25777;47.824;18.982;2023-04-15T08:38:40;9.90;99.90
40077;DHT22;25777;47.824;18.982;2023-04-15T08:44:05;9.80;99.90
40077;DHT22;25777;47.824;18.982;2023-04-15T08:46:40;10.00;99.90
40077;DHT22;25777;47.824;18.982;2023-04-15T08:51:47;10.60;99.90
40077;DHT22;25777;47.824;18.982;2023-04-15T08:54:27;10.60;99.90
40077;DHT22;25777;47.824;18.982;2023-04-15T08:56:53;10.70;99.90
40077;DHT22;25777;47.824;18.982;2023-04-15T09:01:52;10.70;99.90
40077;DHT22;25777;47.824;18.982;2023-04-15T09:06:48;10.40;99.90
40077;DHT22;25777;47.824;18.982;2023-04-15T09:11:45;10.40;99.90
40077;DHT22;25777;47.824;18.982;2023-04-15T09:14:24;10.30;99.90
40077;DHT22;25777;47.824;18.982;2023-04-15T09:19:36;10.60;99.90
40077;DHT22;25777;47.824;18.982;2023-04-15T09:22:02;10.70;99.90
40077;DHT22;25777;47.824;18.982;2023-04-15T09:24:42;10.90;99.90
40077;DHT22;25777;47.824;18.982;2023-04-15T09:27:18;11.50;99.90
40077;DHT22;25777;47.824;18.982;2023-04-15T09:29:48;11.50;99.90
40077;DHT22;25777;47.824;18.982;2023-04-15T09:34:54;10.90;99.90
40077;DHT22;25777;47.824;18.982;2023-04-15T09:37:38;10.70;99.90
40077;DHT22;25777;47.824;18.982;2023-04-15T09:40:05;10.40;99.90
40077;DHT22;25777;47.824;18.982;2023-04-15T09:42:32;10.40;99.90
40077;DHT22;25777;47.824;18.982;2023-04-15T09:45:21;10.30;99.90
40077;DHT22;25777;47.824;18.982;2023-04-15T09:47:47;10.10;99.90
40077;DHT22;25777;47.824;18.982;2023-04-15T09:50:13;10.00;99.90
40077;DHT22;25777;47.824;18.982;2023-04-15T09:52:40;10.00;99.90
40077;DHT22;25777;47.824;18.982;2023-04-15T09:55:07;10.00;99.90
40077;DHT22;25777;47.824;18.982;2023-04-15T09:57:34;10.20;99.90
40077;DHT22;25777;47.824;18.982;2023-04-15T10:02:39;10.60;99.90
40077;DHT22;25777;47.824;18.982;2023-04-15T10:05:12;11.20;99.90
40077;DHT22;25777;47.824;18.982;2023-04-15T10:07:46;11.30;99.90
40077;DHT22;25777;47.824;18.982;2023-04-15T10:10:27;11.30;99.90
40077;DHT22;25777;47.824;18.982;2023-04-15T10:15:31;11.10;99.90
40077;DHT22;25777;47.824;18.982;2023-04-15T10:17:59;11.20;99.90
40077;DHT22;25777;47.824;18.982;2023-04-15T10:20:27;11.20;99.90
40077;DHT22;25777;47.824;18.982;2023-04-15T10:23:02;11.10;99.90
40077;DHT22;25777;47.824;18.982;2023-04-15T10:25:28;11.10;99.90
40077;DHT22;25777;47.824;18.982;2023-04-15T10:28:12;10.90;99.90
40077;DHT22;25777;47.824;18.982;2023-04-15T10:33:11;10.70;99.90
40077;DHT22;25777;47.824;18.982;2023-04-15T10:35:39;10.70;99.90
40077;DHT22;25777;47.824;18.982;2023-04-15T10:38:53;10.70;99.90
40077;DHT22;25777;47.824;18.982;2023-04-15T10:46:04;11.50;99.90
40077;DHT22;25777;47.824;18.982;2023-04-15T10:51:01;11.90;99.90
40077;DHT22;25777;47.824;18.982;2023-04-15T10:53:29;12.00;99.90
40077;DHT22;25777;47.824;18.982;2023-04-15T10:56:03;12.10;99.90
40077;DHT22;25777;47.824;18.982;2023-04-15T10:58:40;12.20;99.90
40077;DHT22;25777;47.824;18.982;2023-04-15T11:01:06;12.50;99.90
40077;DHT22;25777;47.824;18.982;2023-04-15T11:03:46;12.50;99.90
40077;DHT22;25777;47.824;18.982;2023-04-15T11:06:20;12.40;99.90
40077;DHT22;25777;47.824;18.982;2023-04-15T11:14:49;11.60;99.90
40077;DHT22;25777;47.824;18.982;2023-04-15T11:17:26;11.30;99.90
40077;DHT22;25777;47.824;18.982;2023-04-15T11:19:54;11.20;99.90
40077;DHT22;25777;47.824;18.982;2023-04-15T11:22:27;11.10;99.90
40077;DHT22;25777;47.824;18.982;2023-04-15T11:24:53;11.00;99.90
40077;DHT22;25777;47.824;18.982;2023-04-15T11:27:22;11.20;99.90
40077;DHT22;25777;47.824;18.982;2023-04-15T11:29:48;11.40;99.90
40077;DHT22;25777;47.824;18.982;2023-04-15T11:34:50;12.10;99.90
40077;DHT22;25777;47.824;18.982;2023-04-15T11:37:16;12.10;99.90
40077;DHT22;25777;47.824;18.982;2023-04-15T11:42:17;12.00;99.90
40077;DHT22;25777;47.824;18.982;2023-04-15T11:47:31;12.60;99.90
40077;DHT22;25777;47.824;18.982;2023-04-15T11:50:12;12.70;99.90
40077;DHT22;25777;47.824;18.982;2023-04-15T11:52:38;12.90;99.90
40077;DHT22;25777;47.824;18.982;2023-04-15T11:55:04;12.90;99.90
40077;DHT22;25777;47.824;18.982;2023-04-15T11:57:31;12.70;99.90
40077;DHT22;25777;47.824;18.982;2023-04-15T12:00:00;12.70;99.90
40077;DHT22;25777;47.824;18.982;2023-04-15T12:02:38;12.90;99.90
40077;DHT22;25777;47.824;18.982;2023-04-15T12:05:06;12.80;99.90
40077;DHT22;25777;47.824;18.982;2023-04-15T12:07:31;12.60;99.90
40077;DHT22;25777;47.824;18.982;2023-04-15T12:09:59;12.40;99.90
40077;DHT22;25777;47.824;18.982;2023-04-15T12:15:21;12.40;99.90
40077;DHT22;25777;47.824;18.982;2023-04-15T12:17:55;12.50;99.90
40077;DHT22;25777;47.824;18.982;2023-04-15T12:20:24;12.60;99.90
40077;DHT22;25777;47.824;18.982;2023-04-15T12:23:04;12.50;99.90
40077;DHT22;25777;47.824;18.982;2023-04-15T12:25:40;12.40;99.90
40077;DHT22;25777;47.824;18.982;2023-04-15T12:33:38;12.30;99.90
40077;DHT22;25777;47.824;18.982;2023-04-15T12:36:11;12.20;99.90
40077;DHT22;25777;47.824;18.982;2023-04-15T12:38:40;12.20;99.90
40077;DHT22;25777;47.824;18.982;2023-04-15T12:41:06;12.50;99.90
40077;DHT22;25777;47.824;18.982;2023-04-15T12:43:32;12.60;98.90
40077;DHT22;25777;47.824;18.982;2023-04-15T12:48:37;12.30;99.70
40077;DHT22;25777;47.824;18.982;2023-04-15T12:51:14;12.30;98.80
40077;DHT22;25777;47.824;18.982;2023-04-15T12:53:40;12.30;98.60
40077;DHT22;25777;47.824;18.982;2023-04-15T12:56:08;12.30;99.10
40077;DHT22;25777;47.824;18.982;2023-04-15T12:58:34;12.30;98.40
40077;DHT22;25777;47.824;18.982;2023-04-15T13:01:01;12.30;99.90
40077;DHT22;25777;47.824;18.982;2023-04-15T13:03:30;12.40;99.60
40077;DHT22;25777;47.824;18.982;2023-04-15T13:05:57;12.20;99.00
40077;DHT22;25777;47.824;18.982;2023-04-15T13:10:57;12.00;99.00
40077;DHT22;25777;47.824;18.982;2023-04-15T13:13:24;11.80;99.90
40077;DHT22;25777;47.824;18.982;2023-04-15T13:15:55;12.00;99.00
40077;DHT22;25777;47.824;18.982;2023-04-15T13:20:52;12.30;99.90
40077;DHT22;25777;47.824;18.982;2023-04-15T13:23:26;12.30;99.10
40077;DHT22;25777;47.824;18.982;2023-04-15T13:28:21;12.20;98.40
40077;DHT22;25777;47.824;18.982;2023-04-15T13:30:49;12.10;99.00
40077;DHT22;25777;47.824;18.982;2023-04-15T13:33:16;12.00;99.90
40077;DHT22;25777;47.824;18.982;2023-04-15T13:35:46;11.90;99.70
40077;DHT22;25777;47.824;18.982;2023-04-15T13:38:12;12.00;99.80
40077;DHT22;25777;47.824;18.982;2023-04-15T13:40:42;11.90;99.90
40077;DHT22;25777;47.824;18.982;2023-04-15T13:43:09;12.00;99.50
40077;DHT22;25777;47.824;18.982;2023-04-15T13:45:34;12.10;99.80
40077;DHT22;25777;47.824;18.982;2023-04-15T13:48:00;12.10;99.40
40077;DHT22;25777;47.824;18.982;2023-04-15T13:50:33;12.10;98.70
40077;DHT22;25777;47.824;18.982;2023-04-15T13:53:08;12.00;98.00
40077;DHT22;25777;47.824;18.982;2023-04-15T13:55:35;12.10;98.80
40077;DHT22;25777;47.824;18.982;2023-04-15T14:00:32;12.80;99.50
40077;DHT22;25777;47.824;18.982;2023-04-15T14:03:01;13.10;98.30
40077;DHT22;25777;47.824;18.982;2023-04-15T14:05:27;13.10;98.10
40077;DHT22;25777;47.824;18.982;2023-04-15T14:07:53;12.70;96.10
40077;DHT22;25777;47.824;18.982;2023-04-15T14:10:19;12.30;96.90
40077;DHT22;25777;47.824;18.982;2023-04-15T14:12:45;12.20;97.60
40077;DHT22;25777;47.824;18.982;2023-04-15T14:15:12;12.00;98.80
40077;DHT22;25777;47.824;18.982;2023-04-15T14:17:39;11.90;99.20
40077;DHT22;25777;47.824;18.982;2023-04-15T14:20:07;11.90;98.80
40077;DHT22;25777;47.824;18.982;2023-04-15T14:22:33;11.80;99.70
40077;DHT22;25777;47.824;18.982;2023-04-15T14:24:59;11.70;99.40
40077;DHT22;25777;47.824;18.982;2023-04-15T14:27:33;11.60;99.00
40077;DHT22;25777;47.824;18.982;2023-04-15T14:29:58;11.60;99.90
40077;DHT22;25777;47.824;18.982;2023-04-15T14:40:11;11.60;99.90
40077;DHT22;25777;47.824;18.982;2023-04-15T14:42:36;11.60;99.90
40077;DHT22;25777;47.824;18.982;2023-04-15T14:45:02;11.60;99.90
40077;DHT22;25777;47.824;18.982;2023-04-15T14:47:28;11.50;99.90
40077;DHT22;25777;47.824;18.982;2023-04-15T14:49:55;11.60;99.90
40077;DHT22;25777;47.824;18.982;2023-04-15T14:52:30;11.60;99.90
40077;DHT22;25777;47.824;18.982;2023-04-15T14:57:54;11.50;99.90
40077;DHT22;25777;47.824;18.982;2023-04-15T15:00:21;11.60;99.90
40077;DHT22;25777;47.824;18.982;2023-04-15T15:02:47;11.70;99.90
40077;DHT22;25777;47.824;18.982;2023-04-15T15:07:51;11.80;99.90
40077;DHT22;25777;47.824;18.982;2023-04-15T15:10:18;11.90;99.90
40077;DHT22;25777;47.824;18.982;2023-04-15T15:12:44;11.90;99.90
40077;DHT22;25777;47.824;18.982;2023-04-15T15:15:13;11.90;99.90
40077;DHT22;25777;47.824;18.982;2023-04-15T15:17:52;11.90;99.90
40077;DHT22;25777;47.824;18.982;2023-04-15T15:22:48;11.80;99.90
40077;DHT22;25777;47.824;18.982;2023-04-15T15:25:13;11.70;99.90
40077;DHT22;25777;47.824;18.982;2023-04-15T15:27:39;11.80;99.90
40077;DHT22;25777;47.824;18.982;2023-04-15T15:30:05;11.80;99.90
40077;DHT22;25777;47.824;18.982;2023-04-15T15:32:33;11.80;99.90
40077;DHT22;25777;47.824;18.982;2023-04-15T15:35:05;11.80;99.90
40077;DHT22;25777;47.824;18.982;2023-04-15T15:37:31;11.80;99.90
40077;DHT22;25777;47.824;18.982;2023-04-15T15:39:59;11.80;99.90
40077;DHT22;25777;47.824;18.982;2023-04-15T15:42:26;11.80;99.90
40077;DHT22;25777;47.824;18.982;2023-04-15T15:47:48;11.80;99.50
40077;DHT22;25777;47.824;18.982;2023-04-15T15:50:22;11.80;99.90
40077;DHT22;25777;47.824;18.982;2023-04-15T15:52:57;11.80;99.90
40077;DHT22;25777;47.824;18.982;2023-04-15T15:55:23;11.70;99.90
40077;DHT22;25777;47.824;18.982;2023-04-15T16:00:54;11.60;99.90
40077;DHT22;25777;47.824;18.982;2023-04-15T16:03:21;11.70;99.90
40077;DHT22;25777;47.824;18.982;2023-04-15T16:05:47;11.60;99.90
40077;DHT22;25777;47.824;18.982;2023-04-15T16:08:14;11.50;99.90
40077;DHT22;25777;47.824;18.982;2023-04-15T16:10:40;11.40;99.90
40077;DHT22;25777;47.824;18.982;2023-04-15T16:13:06;11.30;99.90
40077;DHT22;25777;47.824;18.982;2023-04-15T16:15:35;11.20;99.90
40077;DHT22;25777;47.824;18.982;2023-04-15T16:18:01;10.80;99.90
40077;DHT22;25777;47.824;18.982;2023-04-15T16:22:58;10.30;99.90
40077;DHT22;25777;47.824;18.982;2023-04-15T16:30:36;10.00;99.90
40077;DHT22;25777;47.824;18.982;2023-04-15T16:33:06;10.00;99.90
40077;DHT22;25777;47.824;18.982;2023-04-15T16:40:33;9.90;99.90
40077;DHT22;25777;47.824;18.982;2023-04-15T16:43:01;9.80;99.90
40077;DHT22;25777;47.824;18.982;2023-04-15T16:45:27;9.80;99.90
40077;DHT22;25777;47.824;18.982;2023-04-15T16:47:53;9.90;99.90
40077;DHT22;25777;47.824;18.982;2023-04-15T16:50:21;9.80;99.90
40077;DHT22;25777;47.824;18.982;2023-04-15T16:52:46;9.80;99.90
40077;DHT22;25777;47.824;18.982;2023-04-15T16:55:14;9.80;99.90
40077;DHT22;25777;47.824;18.982;2023-04-15T16:57:40;9.80;99.90
40077;DHT22;25777;47.824;18.982;2023-04-15T17:00:06;9.70;99.90
40077;DHT22;25777;47.824;18.982;2023-04-15T17:02:33;9.80;99.90
40077;DHT22;25777;47.824;18.982;2023-04-15T17:04:59;9.70;99.90
40077;DHT22;25777;47.824;18.982;2023-04-15T17:07:24;9.60;99.90
40077;DHT22;25777;47.824;18.982;2023-04-15T17:09:50;9.60;99.90
40077;DHT22;25777;47.824;18.982;2023-04-15T17:14:45;9.50;99.90
40077;DHT22;25777;47.824;18.982;2023-04-15T17:17:12;9.40;99.90
40077;DHT22;25777;47.824;18.982;2023-04-15T17:19:40;9.40;99.90
40077;DHT22;25777;47.824;18.982;2023-04-15T17:27:36;9.20;99.90
40077;DHT22;25777;47.824;18.982;2023-04-15T17:40:57;9.10;99.90
40077;DHT22;25777;47.824;18.982;2023-04-15T17:43:24;9.00;99.90
40077;DHT22;25777;47.824;18.982;2023-04-15T17:48:18;8.80;99.90
40077;DHT22;25777;47.824;18.982;2023-04-15T17:50:44;8.70;99.90
40077;DHT22;25777;47.824;18.982;2023-04-15T17:53:13;8.60;99.90
40077;DHT22;25777;47.824;18.982;2023-04-15T17:55:39;8.50;99.90
40077;DHT22;25777;47.824;18.982;2023-04-15T17:58:14;8.60;99.90
40077;DHT22;25777;47.824;18.982;2023-04-15T18:00:49;8.40;99.90
40077;DHT22;25777;47.824;18.982;2023-04-15T18:03:23;8.30;99.90
40077;DHT22;25777;47.824;18.982;2023-04-15T18:05:56;8.20;99.90
40077;DHT22;25777;47.824;18.982;2023-04-15T18:08:27;8.30;99.90
40077;DHT22;25777;47.824;18.982;2023-04-15T18:10:56;8.10;99.90
40077;DHT22;25777;47.824;18.982;2023-04-15T18:13:31;8.10;99.90
40077;DHT22;25777;47.824;18.982;2023-04-15T18:18:49;8.00;99.90
40077;DHT22;25777;47.824;18.982;2023-04-15T18:24:00;8.00;99.90
40077;DHT22;25777;47.824;18.982;2023-04-15T18:26:26;7.80;99.90
40077;DHT22;25777;47.824;18.982;2023-04-15T18:28:53;7.80;99.90
40077;DHT22;25777;47.824;18.982;2023-04-15T18:31:21;7.80;99.90
40077;DHT22;25777;47.824;18.982;2023-04-15T18:36:22;7.80;99.90
40077;DHT22;25777;47.824;18.982;2023-04-15T18:38:48;7.80;99.90
40077;DHT22;25777;47.824;18.982;2023-04-15T18:41:15;7.60;99.90
40077;DHT22;25777;47.824;18.982;2023-04-15T18:43:41;7.50;99.90
40077;DHT22;25777;47.824;18.982;2023-04-15T18:46:06;7.20;99.90
40077;DHT22;25777;47.824;18.982;2023-04-15T18:48:36;7.00;99.90
40077;DHT22;25777;47.824;18.982;2023-04-15T18:51:02;7.00;99.90
40077;DHT22;25777;47.824;18.982;2023-04-15T18:53:28;7.10;99.90
40077;DHT22;25777;47.824;18.982;2023-04-15T18:55:54;7.20;99.90
40077;DHT22;25777;47.824;18.982;2023-04-15T18:58:22;7.10;99.90
40077;DHT22;25777;47.824;18.982;2023-04-15T19:00:49;7.00;99.90
40077;DHT22;25777;47.824;18.982;2023-04-15T19:03:16;6.80;99.90
40077;DHT22;25777;47.824;18.982;2023-04-15T19:05:42;6.70;99.90
40077;DHT22;25777;47.824;18.982;2023-04-15T19:08:18;6.70;99.90
40077;DHT22;25777;47.824;18.982;2023-04-15T19:10:44;6.70;99.90
40077;DHT22;25777;47.824;18.982;2023-04-15T19:13:15;6.60;99.90
40077;DHT22;25777;47.824;18.982;2023-04-15T19:15:43;6.70;99.90
40077;DHT22;25777;47.824;18.982;2023-04-15T19:18:08;6.80;99.90
40077;DHT22;25777;47.824;18.982;2023-04-15T19:20:43;6.60;99.90
40077;DHT22;25777;47.824;18.982;2023-04-15T19:23:09;6.50;99.90
40077;DHT22;25777;47.824;18.982;2023-04-15T19:25:35;6.30;99.90
40077;DHT22;25777;47.824;18.982;2023-04-15T19:28:02;6.30;99.90
40077;DHT22;25777;47.824;18.982;2023-04-15T19:30:28;6.30;99.90
40077;DHT22;25777;47.824;18.982;2023-04-15T19:33:01;6.40;99.90
40077;DHT22;25777;47.824;18.982;2023-04-15T19:35:27;6.50;99.90
40077;DHT22;25777;47.824;18.982;2023-04-15T19:40:43;6.40;99.90
40077;DHT22;25777;47.824;18.982;2023-04-15T19:43:10;6.60;99.90
40077;DHT22;25777;47.824;18.982;2023-04-15T19:50:36;6.10;99.90
40077;DHT22;25777;47.824;18.982;2023-04-15T19:53:02;6.10;99.90
40077;DHT22;25777;47.824;18.982;2023-04-15T19:55:28;6.00;99.90
40077;DHT22;25777;47.824;18.982;2023-04-15T19:58:02;6.10;99.90
40077;DHT22;25777;47.824;18.982;2023-04-15T20:00:28;6.20;99.90
40077;DHT22;25777;47.824;18.982;2023-04-15T20:03:01;6.10;99.90
40077;DHT22;25777;47.824;18.982;2023-04-15T20:13:12;6.10;99.90
40077;DHT22;25777;47.824;18.982;2023-04-15T20:15:41;6.20;99.90
40077;DHT22;25777;47.824;18.982;2023-04-15T20:18:07;6.00;99.90
40077;DHT22;25777;47.824;18.982;2023-04-15T20:20:33;5.90;99.90
40077;DHT22;25777;47.824;18.982;2023-04-15T20:22:59;5.80;99.90
40077;DHT22;25777;47.824;18.982;2023-04-15T20:25:26;5.80;99.90
40077;DHT22;25777;47.824;18.982;2023-04-15T20:30:51;5.80;99.90
40077;DHT22;25777;47.824;18.982;2023-04-15T20:33:18;5.80;99.90
40077;DHT22;25777;47.824;18.982;2023-04-15T20:35:43;5.80;99.90
40077;DHT22;25777;47.824;18.982;2023-04-15T20:38:16;5.80;99.90
40077;DHT22;25777;47.824;18.982;2023-04-15T20:40:48;5.80;99.90
40077;DHT22;25777;47.824;18.982;2023-04-15T20:43:14;5.70;99.90
40077;DHT22;25777;47.824;18.982;2023-04-15T20:45:40;5.70;99.90
40077;DHT22;25777;47.824;18.982;2023-04-15T20:53:13;6.00;99.90
40077;DHT22;25777;47.824;18.982;2023-04-15T20:55:39;6.00;99.90
40077;DHT22;25777;47.824;18.982;2023-04-15T21:00:48;5.90;99.90
40077;DHT22;25777;47.824;18.982;2023-04-15T21:05:57;5.80;99.90